createdAt,value
2019-03-27T00:02:19.563Z,65.07
2019-03-27T00:05:23.827Z,64.53
2019-03-27T00:08:28.287Z,61.20
2019-03-27T00:11:32.398Z,56.57
2019-03-27T00:14:36.609Z,55.97
2019-03-27T00:17:40.854Z,58.10
2019-03-27T00:20:45.218Z,56.37
2019-03-27T00:23:49.401Z,48.87
2019-03-27T00:26:53.884Z,53.00
2019-03-27T00:29:58.127Z,53.60
2019-03-27T00:33:02.744Z,50.67
2019-03-27T00:36:07.197Z,49.17
2019-03-27T00:39:11.386Z,46.97
2019-03-27T00:42:16.132Z,48.83
2019-03-27T00:45:26.526Z,50.80
2019-03-27T00:48:26.141Z,48.63
2019-03-27T00:51:30.649Z,45.80
2019-03-27T00:54:34.834Z,46.47
2019-03-27T00:57:39.105Z,43.90
2019-03-27T01:01:08.351Z,40.63
2019-03-27T01:04:12.788Z,39.73
2019-03-27T01:07:16.904Z,41.30
2019-03-27T01:10:21.146Z,40.43
2019-03-27T01:13:25.334Z,40.83
2019-03-27T01:16:30.084Z,40.80
2019-03-27T01:19:34.189Z,37.27
2019-03-27T01:22:38.311Z,38.23
2019-03-27T01:25:42.494Z,37.07
2019-03-27T01:28:46.946Z,35.43
2019-03-27T01:31:51.723Z,35.37
2019-03-27T01:34:55.905Z,33.07
2019-03-27T01:38:00.157Z,37.43
2019-03-27T01:41:04.476Z,33.70
2019-03-27T01:44:08.979Z,33.60
2019-03-27T01:47:13.087Z,31.70
2019-03-27T01:50:17.199Z,32.37
2019-03-27T01:53:21.308Z,29.47
2019-03-27T01:56:25.492Z,28.43
2019-03-27T01:59:29.741Z,29.50
2019-03-27T02:02:34.293Z,28.13
2019-03-27T02:05:38.412Z,32.63
2019-03-27T02:08:42.522Z,27.97
2019-03-27T02:11:46.630Z,30.87
2019-03-27T02:14:51.056Z,26.33
2019-03-27T02:17:55.161Z,26.60
2019-03-27T02:21:00.110Z,26.73
2019-03-27T02:24:04.313Z,27.57
2019-03-27T02:27:08.504Z,28.70
2019-03-27T02:30:12.782Z,27.30
2019-03-27T02:33:17.014Z,27.13
2019-03-27T02:36:21.337Z,24.60
2019-03-27T02:39:25.513Z,25.73
2019-03-27T02:42:29.957Z,24.77
2019-03-27T02:45:34.141Z,24.03
2019-03-27T02:48:38.331Z,24.33
2019-03-27T02:51:42.797Z,24.10
2019-03-27T02:54:47.063Z,23.43
2019-03-27T02:57:51.250Z,23.33
2019-03-27T03:00:55.368Z,20.43
2019-03-27T03:03:59.483Z,22.50
2019-03-27T03:07:03.686Z,22.07
2019-03-27T03:10:10.331Z,22.67
2019-03-27T03:13:14.632Z,24.83
2019-03-27T03:16:18.821Z,22.27
2019-03-27T03:19:23.765Z,21.30
2019-03-27T03:22:36.866Z,20.50
2019-03-27T03:25:47.216Z,21.07
2019-03-27T03:28:56.449Z,20.00
2019-03-27T03:32:09.462Z,19.67
2019-03-27T03:35:25.310Z,19.70
2019-03-27T03:38:41.659Z,19.97
2019-03-27T03:41:55.913Z,19.23
2019-03-27T03:45:13.418Z,19.10
2019-03-27T03:48:27.995Z,23.73
2019-03-27T03:51:33.799Z,20.73
2019-03-27T03:54:48.012Z,18.63
2019-03-27T03:57:59.811Z,17.87
2019-03-27T04:01:20.400Z,16.77
2019-03-27T04:04:34.979Z,18.80
2019-03-27T04:07:46.046Z,16.50
2019-03-27T04:11:06.569Z,15.87
2019-03-27T04:14:19.567Z,18.27
2019-03-27T04:17:44.987Z,15.67
2019-03-27T04:20:52.176Z,14.73
2019-03-27T04:24:03.556Z,16.10
2019-03-27T04:27:15.149Z,13.60
2019-03-27T04:33:44.501Z,14.80
2019-03-27T04:37:04.670Z,16.27
2019-03-27T04:40:15.652Z,16.03
2019-03-27T04:43:26.725Z,17.57
2019-03-27T04:46:36.167Z,13.30
2019-03-27T04:49:54.984Z,18.63
2019-03-27T04:53:06.313Z,16.60
2019-03-27T04:56:25.694Z,14.93
2019-03-27T04:59:36.664Z,13.80
2019-03-27T05:02:47.744Z,12.87
2019-03-27T05:05:59.260Z,13.90
2019-03-27T05:09:09.391Z,16.80
2019-03-27T05:12:27.234Z,13.00
2019-03-27T05:15:34.518Z,43.97
2019-03-27T05:18:51.862Z,27.77
2019-03-27T05:22:04.150Z,33.60
2019-03-27T05:25:15.565Z,31.63
2019-03-27T05:28:27.954Z,191.63
2019-03-27T05:31:40.363Z,209.67
2019-03-27T05:34:49.497Z,299.47
2019-03-27T05:38:02.218Z,236.13
2019-03-27T05:41:11.250Z,218.17
2019-03-27T05:44:20.383Z,208.33
2019-03-27T05:47:36.018Z,191.67
2019-03-27T05:50:52.376Z,190.87
2019-03-27T05:54:01.130Z,96.07
2019-03-27T05:57:09.923Z,90.43
2019-03-27T06:00:21.919Z,83.60
2019-03-27T06:03:38.497Z,90.57
2019-03-27T06:06:50.946Z,28.17
2019-03-27T06:10:00.744Z,55.00
2019-03-27T06:13:13.498Z,75.27
2019-03-27T06:16:21.918Z,63.17
2019-03-27T06:19:30.589Z,56.90
2019-03-27T06:22:42.021Z,59.30
2019-03-27T06:25:51.390Z,54.57
2019-03-27T06:29:00.603Z,54.97
2019-03-27T06:32:19.511Z,49.07
2019-03-27T06:35:27.244Z,56.20
2019-03-27T06:38:42.647Z,49.60
2019-03-27T06:41:50.348Z,47.63
2019-03-27T06:45:00.916Z,43.10
2019-03-27T06:48:25.518Z,48.07
2019-03-27T06:51:25.458Z,42.63
2019-03-27T06:54:35.690Z,43.93
2019-03-27T06:57:50.971Z,44.20
2019-03-27T07:01:06.764Z,48.07
2019-03-27T07:04:13.650Z,40.07
2019-03-27T07:07:21.135Z,40.90
2019-03-27T07:10:34.230Z,39.60
2019-03-27T07:13:43.703Z,38.90
2019-03-27T07:16:52.224Z,42.20
2019-03-27T07:20:02.279Z,39.93
2019-03-27T07:23:11.515Z,34.50
2019-03-27T07:26:27.629Z,31.17
2019-03-27T07:29:38.284Z,42.20
2019-03-27T07:32:52.127Z,33.77
2019-03-27T07:35:59.567Z,30.80
2019-03-27T07:39:11.289Z,33.60
2019-03-27T07:42:18.402Z,34.37
2019-03-27T07:45:29.501Z,30.70
2019-03-27T07:48:38.036Z,31.47
2019-03-27T07:51:45.086Z,29.33
2019-03-27T07:54:56.182Z,28.77
2019-03-27T07:58:07.144Z,62.20
2019-03-27T08:01:17.873Z,160.37
2019-03-27T08:04:28.381Z,157.93
2019-03-27T08:07:39.154Z,159.50
2019-03-27T08:10:48.902Z,145.40
2019-03-27T08:13:59.138Z,146.83
2019-03-27T08:17:07.478Z,133.57
2019-03-27T08:20:22.038Z,119.23
2019-03-27T08:23:34.127Z,108.60
2019-03-27T08:26:42.562Z,108.47
2019-03-27T08:29:57.632Z,102.07
2019-03-27T08:33:06.670Z,98.90
2019-03-27T08:36:15.900Z,95.83
2019-03-27T08:39:29.365Z,91.27
2019-03-27T08:42:40.459Z,94.87
2019-03-27T08:45:50.625Z,95.30
2019-03-27T08:49:03.680Z,87.23
2019-03-27T08:52:19.643Z,88.23
2019-03-27T08:55:34.148Z,78.73
2019-03-27T08:58:44.001Z,73.37
2019-03-27T09:01:59.498Z,76.90
2019-03-27T09:05:05.664Z,72.73
2019-03-27T09:11:42.965Z,70.20
2019-03-27T09:15:09.405Z,72.47
2019-03-27T09:18:22.329Z,66.57
2019-03-27T09:21:32.843Z,70.57
2019-03-27T09:24:47.586Z,70.37
2019-03-27T09:27:58.781Z,66.67
2019-03-27T09:31:11.337Z,61.53
2019-03-27T09:34:25.441Z,61.27
2019-03-27T09:37:42.426Z,59.80
2019-03-27T09:41:02.478Z,59.83
2019-03-27T09:44:16.502Z,53.43
2019-03-27T09:47:55.907Z,61.07
2019-03-27T09:51:10.161Z,55.67
2019-03-27T09:54:21.326Z,48.90
2019-03-27T09:57:46.296Z,52.23
2019-03-27T10:01:13.867Z,51.40
2019-03-27T10:04:41.039Z,53.37
2019-03-27T10:07:59.036Z,50.57
2019-03-27T10:11:12.036Z,47.93
2019-03-27T10:14:32.947Z,50.47
2019-03-27T10:17:47.098Z,51.20
2019-03-27T10:20:56.263Z,44.30
2019-03-27T10:24:10.179Z,42.40
2019-03-27T10:27:24.968Z,44.73
2019-03-27T10:30:36.437Z,44.23
2019-03-27T10:33:54.667Z,45.20
2019-03-27T10:37:10.164Z,40.40
2019-03-27T10:40:19.503Z,39.23
2019-03-27T10:43:39.410Z,40.57
2019-03-27T10:46:54.669Z,39.67
2019-03-27T10:50:17.449Z,41.80
2019-03-27T10:53:24.704Z,41.50
2019-03-27T10:56:36.119Z,34.93
2019-03-27T10:59:51.209Z,32.30
2019-03-27T11:03:07.374Z,37.90
2019-03-27T11:06:18.553Z,35.20
2019-03-27T11:09:32.397Z,35.07
2019-03-27T11:12:49.153Z,34.83
2019-03-27T11:16:00.700Z,32.50
2019-03-27T11:19:16.340Z,34.77
2019-03-27T11:22:25.931Z,31.80
2019-03-27T11:25:44.460Z,28.17
2019-03-27T11:28:56.980Z,31.13
2019-03-27T11:32:09.001Z,36.67
2019-03-27T11:35:28.178Z,33.63
2019-03-27T11:38:37.809Z,35.47
2019-03-27T11:41:52.017Z,35.17
2019-03-27T11:45:08.035Z,31.47
2019-03-27T11:48:18.348Z,28.00
2019-03-27T11:51:29.996Z,28.43
2019-03-27T11:54:47.866Z,25.57
2019-03-27T11:57:58.693Z,25.70
2019-03-27T12:01:08.072Z,28.63
2019-03-27T12:04:27.610Z,25.23
2019-03-27T12:07:43.699Z,23.70
2019-03-27T12:14:12.317Z,24.17
2019-03-27T12:17:19.239Z,29.33
2019-03-27T12:20:32.264Z,21.70
2019-03-27T12:23:45.687Z,23.73
2019-03-27T12:26:53.604Z,22.83
2019-03-27T12:30:06.878Z,23.03
2019-03-27T12:33:15.501Z,23.00
2019-03-27T12:36:29.149Z,21.23
2019-03-27T12:39:34.804Z,21.73
2019-03-27T12:42:45.771Z,22.13
2019-03-27T12:45:52.299Z,19.97
2019-03-27T12:48:59.125Z,21.53
2019-03-27T12:52:11.000Z,18.93
2019-03-27T12:55:19.188Z,19.73
2019-03-27T12:58:28.128Z,19.00
2019-03-27T13:01:38.071Z,19.70
2019-03-27T13:04:52.529Z,17.90
2019-03-27T13:08:02.567Z,17.63
2019-03-27T13:11:12.011Z,16.50
2019-03-27T13:14:29.761Z,17.20
2019-03-27T13:17:46.474Z,18.63
2019-03-27T13:21:05.009Z,16.93
2019-03-27T13:24:19.589Z,17.87
2019-03-27T13:27:32.717Z,16.87
2019-03-27T13:30:55.982Z,16.67
2019-03-27T13:34:01.893Z,15.27
2019-03-27T13:37:17.594Z,16.33
2019-03-27T13:40:26.252Z,14.17
2019-03-27T13:43:38.969Z,16.67
2019-03-27T13:46:50.180Z,14.70
2019-03-27T13:49:58.391Z,15.87
2019-03-27T13:53:17.224Z,17.03
2019-03-27T13:56:32.195Z,14.20
2019-03-27T13:59:45.929Z,14.43
2019-03-27T14:02:59.474Z,12.93
2019-03-27T14:06:10.352Z,12.73
2019-03-27T14:09:22.965Z,12.50
2019-03-27T14:12:32.919Z,14.67
2019-03-27T14:15:43.496Z,13.17
2019-03-27T14:18:52.517Z,11.63
2019-03-27T14:22:15.270Z,13.47
2019-03-27T14:25:24.202Z,12.03
2019-03-27T14:28:36.303Z,11.80
2019-03-27T14:31:44.208Z,13.47
2019-03-27T14:34:58.564Z,11.03
2019-03-27T14:38:16.751Z,10.67
2019-03-27T14:41:29.345Z,10.43
2019-03-27T14:44:41.428Z,11.70
2019-03-27T14:47:52.404Z,10.90
2019-03-27T14:51:13.418Z,12.07
2019-03-27T14:54:31.053Z,11.23
2019-03-27T14:57:41.722Z,10.63
2019-03-27T15:00:57.207Z,10.67
2019-03-27T15:04:09.922Z,10.40
2019-03-27T15:07:18.740Z,10.10
2019-03-27T15:10:31.733Z,9.23
2019-03-27T15:13:42.035Z,9.87
2019-03-27T15:16:52.603Z,8.03
2019-03-27T15:20:02.453Z,9.93
2019-03-27T15:23:17.567Z,7.90
2019-03-27T15:26:27.729Z,8.93
2019-03-27T15:29:45.749Z,9.00
2019-03-27T15:32:52.201Z,8.40
2019-03-27T15:36:02.643Z,8.10
2019-03-27T15:39:14.463Z,7.77
2019-03-27T15:42:24.006Z,9.13
2019-03-27T15:45:34.575Z,7.80
2019-03-27T15:48:43.412Z,8.73
2019-03-27T15:51:52.106Z,9.53
2019-03-27T15:55:03.306Z,23.13
2019-03-27T15:58:17.252Z,29.83
2019-03-27T16:01:34.480Z,3.73
2019-03-27T16:04:50.595Z,5.73
2019-03-27T16:07:57.288Z,8.80
2019-03-27T16:11:05.667Z,9.97
2019-03-27T16:14:17.053Z,11.73
2019-03-27T16:17:28.503Z,24.73
2019-03-27T16:20:39.315Z,34.50
2019-03-27T16:23:48.787Z,47.90
2019-03-27T16:27:04.487Z,55.77
2019-03-27T16:30:07.008Z,54.37
2019-03-27T16:33:16.567Z,41.27
2019-03-27T16:36:25.456Z,37.17
2019-03-27T16:39:33.064Z,28.77
2019-03-27T16:42:43.969Z,29.40
2019-03-27T16:45:51.934Z,36.77
2019-03-27T16:48:58.752Z,34.77
2019-03-27T16:52:05.842Z,32.63
2019-03-27T16:55:12.760Z,29.37
2019-03-27T16:58:21.061Z,31.03
2019-03-27T17:01:28.531Z,35.03
2019-03-27T17:04:40.742Z,26.63
2019-03-27T17:07:47.980Z,31.67
2019-03-27T17:10:55.935Z,30.57
2019-03-27T17:14:02.410Z,22.20
2019-03-27T17:17:12.128Z,22.40
2019-03-27T17:20:19.307Z,20.90
2019-03-27T17:23:31.866Z,25.73
2019-03-27T17:26:40.172Z,16.47
2019-03-27T17:29:47.052Z,24.00
2019-03-27T17:32:56.674Z,24.83
2019-03-27T17:36:06.346Z,19.10
2019-03-27T17:39:15.848Z,24.60
2019-03-27T17:42:23.568Z,33.77
2019-03-27T17:45:32.569Z,21.83
2019-03-27T17:48:39.257Z,24.63
2019-03-27T17:51:51.975Z,36.67
2019-03-27T17:55:01.519Z,24.80
2019-03-27T17:58:15.833Z,23.63
2019-03-27T18:01:25.355Z,28.20
2019-03-27T18:04:37.810Z,28.00
2019-03-27T18:07:44.545Z,26.27
2019-03-27T18:10:53.326Z,24.50
2019-03-27T18:14:00.310Z,27.60
2019-03-27T18:17:07.956Z,20.87
2019-03-27T18:20:16.135Z,18.00
2019-03-27T18:23:23.562Z,18.93
2019-03-27T18:26:34.433Z,19.13
2019-03-27T18:29:43.611Z,18.30
2019-03-27T18:32:50.134Z,17.00
2019-03-27T18:36:03.841Z,18.03
2019-03-27T18:39:11.709Z,16.63
2019-03-27T18:42:18.696Z,15.47
2019-03-27T18:45:31.022Z,16.90
2019-03-27T18:48:39.177Z,20.73
2019-03-27T18:51:49.554Z,15.70
2019-03-27T18:54:58.373Z,16.20
2019-03-27T18:58:06.612Z,19.13
2019-03-27T19:01:15.469Z,16.90
2019-03-27T19:04:24.948Z,13.03
2019-03-27T19:07:39.162Z,16.20
2019-03-27T19:10:44.808Z,19.53
2019-03-27T19:13:55.275Z,13.63
2019-03-27T19:17:03.943Z,15.03
2019-03-27T19:20:11.163Z,37.67
2019-03-27T19:23:17.695Z,19.10
2019-03-27T19:26:26.281Z,24.13
2019-03-27T19:29:35.810Z,18.07
2019-03-27T19:32:47.654Z,15.63
2019-03-27T19:35:55.170Z,22.53
2019-03-27T19:39:06.434Z,15.50
2019-03-27T19:42:11.701Z,14.23
2019-03-27T19:45:16.998Z,13.27
2019-03-27T19:48:21.792Z,16.47
2019-03-27T19:51:31.602Z,16.00
2019-03-27T19:54:37.671Z,12.70
2019-03-27T19:57:45.328Z,17.53
2019-03-27T20:00:50.518Z,13.93
2019-03-27T20:03:57.054Z,14.07
2019-03-27T20:07:09.742Z,17.10
2019-03-27T20:10:24.478Z,15.17
2019-03-27T20:13:44.840Z,15.50
2019-03-27T20:16:56.718Z,10.83
2019-03-27T20:20:07.868Z,16.47
2019-03-27T20:23:19.256Z,17.80
2019-03-27T20:26:37.961Z,19.27
2019-03-27T20:29:51.288Z,21.97
2019-03-27T20:33:11.720Z,14.77
2019-03-27T20:36:37.906Z,18.97
2019-03-27T20:39:44.271Z,14.07
2019-03-27T20:42:52.537Z,13.07
2019-03-27T20:46:01.172Z,17.30
2019-03-27T20:49:12.370Z,19.07
2019-03-27T20:52:21.502Z,14.00
2019-03-27T20:55:30.926Z,16.60
2019-03-27T20:58:44.157Z,19.03
2019-03-27T21:01:53.279Z,13.30
2019-03-27T21:05:07.559Z,15.50
2019-03-27T21:08:17.206Z,13.70
2019-03-27T21:11:29.925Z,13.17
2019-03-27T21:14:40.595Z,17.70
2019-03-27T21:17:50.484Z,17.80
2019-03-27T21:21:00.756Z,19.90
2019-03-27T21:24:08.744Z,13.07
2019-03-27T21:27:18.868Z,16.27
2019-03-27T21:33:48.202Z,17.07
2019-03-27T21:36:59.830Z,16.70
2019-03-27T21:40:09.018Z,10.63
2019-03-27T21:43:16.930Z,19.47
2019-03-27T21:46:29.341Z,12.97
2019-03-27T21:49:36.428Z,14.87
2019-03-27T21:52:59.492Z,14.13
2019-03-27T21:55:56.704Z,19.00
2019-03-27T21:59:06.809Z,16.93
2019-03-27T22:02:16.549Z,13.10
2019-03-27T22:05:26.517Z,24.17
2019-03-27T22:08:36.993Z,16.97
2019-03-27T22:11:45.895Z,13.67
2019-03-27T22:14:54.723Z,19.10
2019-03-27T22:18:05.085Z,16.20
2019-03-27T22:21:13.708Z,16.13
2019-03-27T22:24:22.533Z,16.00
2019-03-27T22:27:33.334Z,16.43
2019-03-27T22:30:42.238Z,16.57
2019-03-27T22:33:53.027Z,15.60
2019-03-27T22:37:02.039Z,10.53
2019-03-27T22:40:15.644Z,13.77
2019-03-27T22:43:25.329Z,19.73
2019-03-27T22:46:35.585Z,52.53
2019-03-27T22:49:44.300Z,51.57
2019-03-27T22:52:52.317Z,44.43
2019-03-27T22:56:03.815Z,45.90
2019-03-27T22:59:10.880Z,41.77
2019-03-27T23:02:20.860Z,41.00
2019-03-27T23:05:30.467Z,52.83
2019-03-27T23:08:38.400Z,35.70
2019-03-27T23:11:48.452Z,47.43
2019-03-27T23:14:59.122Z,37.70
2019-03-27T23:18:08.373Z,54.50
2019-03-27T23:21:17.299Z,35.77
2019-03-27T23:24:27.659Z,34.47
2019-03-27T23:27:37.502Z,33.57
2019-03-27T23:30:46.840Z,34.30
2019-03-27T23:33:55.500Z,34.47
2019-03-27T23:37:05.214Z,36.10
2019-03-27T23:40:13.017Z,40.60
2019-03-27T23:43:21.596Z,34.77
2019-03-27T23:46:29.234Z,31.57
2019-03-27T23:49:37.856Z,30.00
2019-03-27T23:52:50.985Z,37.83
2019-03-27T23:56:01.157Z,33.67
2019-03-27T23:59:16.774Z,26.83
